createdAt,value
2022-11-28T00:21:20.710Z,100.00
2022-11-28T00:23:48.096Z,100.00
2022-11-28T00:26:19.217Z,100.00
2022-11-28T00:28:45.792Z,100.00
2022-11-28T00:31:16.749Z,100.00
2022-11-28T00:33:43.248Z,100.00
2022-11-28T00:36:10.823Z,100.00
2022-11-28T00:38:37.277Z,100.00
2022-11-28T00:41:09.732Z,100.00
2022-11-28T00:43:36.466Z,100.00
2022-11-28T00:46:04.068Z,100.00
2022-11-28T00:48:31.934Z,100.00
2022-11-28T00:51:06.812Z,100.00
2022-11-28T00:53:32.986Z,100.00
2022-11-28T00:55:59.120Z,100.00
2022-11-28T00:58:25.250Z,100.00
2022-11-28T01:00:51.526Z,100.00
2022-11-28T01:03:17.699Z,100.00
2022-11-28T01:05:43.894Z,100.00
2022-11-28T01:08:10.845Z,100.00
2022-11-28T01:10:42.273Z,100.00
2022-11-28T01:13:09.479Z,100.00
2022-11-28T01:15:35.877Z,100.00
2022-11-28T01:18:02.809Z,100.00
2022-11-28T01:20:29.185Z,100.00
2022-11-28T01:22:55.357Z,100.00
2022-11-28T01:25:21.502Z,100.00
2022-11-28T01:27:47.779Z,100.00
2022-11-28T01:30:14.131Z,100.00
2022-11-28T01:32:40.391Z,100.00
2022-11-28T01:35:06.815Z,100.00
2022-11-28T01:37:32.939Z,100.00
2022-11-28T01:39:59.155Z,100.00
2022-11-28T01:42:25.341Z,100.00
2022-11-28T01:44:54.269Z,100.00
2022-11-28T01:47:30.504Z,100.00
2022-11-28T01:49:56.836Z,100.00
2022-11-28T01:52:23.911Z,100.00
2022-11-28T01:54:54.962Z,100.00
2022-11-28T01:57:23.953Z,100.00
2022-11-28T02:00:06.873Z,100.00
2022-11-28T02:02:49.177Z,100.00
2022-11-28T02:05:16.971Z,100.00
2022-11-28T02:07:44.309Z,100.00
2022-11-28T02:10:13.837Z,100.00
2022-11-28T02:12:58.769Z,100.00
2022-11-28T02:15:54.955Z,100.00
2022-11-28T02:18:33.166Z,100.00
2022-11-28T02:21:24.258Z,100.00
2022-11-28T02:24:13.282Z,100.00
2022-11-28T02:27:16.380Z,100.00
2022-11-28T02:29:57.226Z,100.00
2022-11-28T02:32:34.735Z,100.00
2022-11-28T02:35:36.563Z,100.00
2022-11-28T02:38:40.067Z,100.00
2022-11-28T02:41:09.644Z,100.00
2022-11-28T02:43:52.089Z,100.00
2022-11-28T02:46:22.036Z,100.00
2022-11-28T02:49:06.848Z,100.00
2022-11-28T02:51:42.518Z,100.00
2022-11-28T02:54:13.450Z,100.00
2022-11-28T02:56:39.615Z,100.00
2022-11-28T02:59:37.243Z,100.00
2022-11-28T03:02:13.948Z,100.00
2022-11-28T03:05:13.898Z,100.00
2022-11-28T03:08:05.087Z,100.00
2022-11-28T03:10:45.054Z,100.00
2022-11-28T03:13:17.478Z,100.00
2022-11-28T03:16:15.135Z,100.00
2022-11-28T03:19:05.227Z,100.00
2022-11-28T03:21:47.593Z,100.00
2022-11-28T03:24:22.985Z,100.00
2022-11-28T03:26:58.581Z,100.00
2022-11-28T03:29:37.091Z,100.00
2022-11-28T03:32:11.732Z,100.00
2022-11-28T03:34:44.590Z,100.00
2022-11-28T03:37:23.490Z,100.00
2022-11-28T03:39:55.381Z,100.00
2022-11-28T03:42:24.893Z,100.00
2022-11-28T03:45:12.644Z,100.00
2022-11-28T03:47:43.508Z,100.00
2022-11-28T03:50:17.484Z,100.00
2022-11-28T03:52:51.005Z,100.00
2022-11-28T03:55:33.126Z,100.00
2022-11-28T03:58:07.519Z,100.00
2022-11-28T04:00:38.288Z,100.00
2022-11-28T04:03:24.247Z,100.00
2022-11-28T04:06:19.040Z,100.00
2022-11-28T04:09:18.401Z,100.00
2022-11-28T04:12:04.686Z,100.00
2022-11-28T04:14:39.872Z,100.00
2022-11-28T04:17:13.627Z,100.00
2022-11-28T04:19:55.055Z,100.00
2022-11-28T04:22:42.657Z,100.00
2022-11-28T04:25:13.601Z,100.00
2022-11-28T04:27:53.176Z,100.00
2022-11-28T04:30:19.476Z,100.00
2022-11-28T04:32:55.927Z,100.00
2022-11-28T04:35:31.056Z,100.00
2022-11-28T04:37:59.230Z,100.00
2022-11-28T04:40:27.574Z,100.00
2022-11-28T04:43:01.770Z,100.00
2022-11-28T04:45:36.892Z,100.00
2022-11-28T04:48:03.718Z,100.00
2022-11-28T04:50:44.007Z,100.00
2022-11-28T04:53:20.400Z,100.00
2022-11-28T04:55:52.735Z,100.00
2022-11-28T04:58:25.162Z,100.00
2022-11-28T05:00:55.005Z,100.00
2022-11-28T05:03:22.325Z,100.00
2022-11-28T05:05:51.192Z,100.00
2022-11-28T05:08:18.923Z,100.00
2022-11-28T05:10:45.462Z,100.00
2022-11-28T05:13:11.576Z,100.00
2022-11-28T05:15:37.772Z,100.00
2022-11-28T05:18:04.302Z,100.00
2022-11-28T05:20:30.565Z,100.00
2022-11-28T05:22:56.754Z,100.00
2022-11-28T05:25:23.262Z,100.00
2022-11-28T05:27:49.526Z,100.00
2022-11-28T05:30:15.866Z,100.00
2022-11-28T05:32:42.163Z,100.00
2022-11-28T05:35:08.593Z,100.00
2022-11-28T05:37:34.754Z,100.00
2022-11-28T05:40:00.892Z,100.00
2022-11-28T05:42:28.540Z,100.00
2022-11-28T05:44:54.661Z,100.00
2022-11-28T05:47:20.787Z,100.00
2022-11-28T05:49:47.587Z,100.00
2022-11-28T05:52:13.706Z,100.00
2022-11-28T05:54:39.824Z,100.00
2022-11-28T05:57:08.573Z,100.00
2022-11-28T05:59:34.849Z,100.00
2022-11-28T06:02:01.192Z,100.00
2022-11-28T06:04:27.407Z,100.00
2022-11-28T06:06:53.555Z,100.00
2022-11-28T06:09:23.335Z,100.00
2022-11-28T06:11:51.878Z,100.00
2022-11-28T06:14:18.028Z,100.00
2022-11-28T06:16:44.284Z,100.00
2022-11-28T06:19:12.337Z,100.00
2022-11-28T06:21:38.735Z,100.00
2022-11-28T06:24:05.005Z,100.00
2022-11-28T06:26:31.217Z,100.00
2022-11-28T06:28:57.352Z,100.00
2022-11-28T06:31:28.395Z,100.00
2022-11-28T06:33:54.744Z,100.00
2022-11-28T06:36:21.077Z,100.00
2022-11-28T06:38:47.259Z,100.00
2022-11-28T06:41:17.281Z,100.00
2022-11-28T06:43:43.480Z,100.00
2022-11-28T06:46:21.189Z,100.00
2022-11-28T06:48:48.738Z,100.00
2022-11-28T06:51:15.510Z,100.00
2022-11-28T06:53:42.079Z,100.00
2022-11-28T06:56:11.160Z,100.00
2022-11-28T06:58:37.408Z,100.00
2022-11-28T07:01:13.145Z,100.00
2022-11-28T07:03:39.784Z,100.00
2022-11-28T07:06:06.956Z,100.00
2022-11-28T07:08:33.840Z,100.00
2022-11-28T07:11:08.789Z,100.00
2022-11-28T07:13:34.938Z,100.00
2022-11-28T07:16:01.061Z,100.00
2022-11-28T07:18:27.162Z,100.00
2022-11-28T07:20:53.297Z,100.00
2022-11-28T07:23:19.409Z,100.00
2022-11-28T07:25:45.524Z,100.00
2022-11-28T07:28:11.735Z,100.00
2022-11-28T07:30:37.922Z,100.00
2022-11-28T07:33:04.063Z,100.00
2022-11-28T07:35:30.194Z,100.00
2022-11-28T07:37:56.338Z,100.00
2022-11-28T07:40:22.960Z,100.00
2022-11-28T07:42:49.172Z,100.00
2022-11-28T07:45:15.391Z,100.00
2022-11-28T07:47:41.518Z,100.00
2022-11-28T07:50:08.302Z,100.00
2022-11-28T07:52:34.437Z,100.00
2022-11-28T07:55:00.573Z,100.00
2022-11-28T07:57:26.723Z,100.00
2022-11-28T07:59:52.859Z,100.00
2022-11-28T08:02:19.078Z,100.00
2022-11-28T08:04:50.448Z,100.00
2022-11-28T08:07:19.831Z,100.00
2022-11-28T08:09:46.106Z,100.00
2022-11-28T08:12:12.253Z,100.00
2022-11-28T08:14:38.370Z,100.00
2022-11-28T08:17:04.555Z,100.00
2022-11-28T08:19:35.127Z,100.00
2022-11-28T08:22:01.578Z,100.00
2022-11-28T08:24:27.967Z,100.00
2022-11-28T08:26:54.129Z,100.00
2022-11-28T08:29:20.258Z,100.00
2022-11-28T08:31:46.464Z,100.00
2022-11-28T08:34:12.868Z,100.00
2022-11-28T08:36:39.490Z,100.00
2022-11-28T08:41:59.777Z,100.00
2022-11-28T08:44:27.126Z,100.00
2022-11-28T08:46:54.352Z,100.00
2022-11-28T08:49:20.772Z,100.00
2022-11-28T08:51:47.032Z,100.00
2022-11-28T08:54:13.168Z,100.00
2022-11-28T08:56:39.401Z,100.00
2022-11-28T08:59:07.164Z,100.00
2022-11-28T09:01:33.427Z,100.00
2022-11-28T09:03:59.604Z,100.00
2022-11-28T09:06:25.864Z,100.00
2022-11-28T09:08:52.684Z,100.00
2022-11-28T09:11:20.840Z,100.00
2022-11-28T09:13:48.511Z,100.00
2022-11-28T09:16:15.608Z,100.00
2022-11-28T09:18:42.204Z,100.00
2022-11-28T09:21:10.850Z,100.00
2022-11-28T09:23:41.630Z,100.00
2022-11-28T09:26:12.932Z,100.00
2022-11-28T09:28:40.568Z,100.00
2022-11-28T09:31:07.693Z,100.00
2022-11-28T09:33:34.227Z,100.00
2022-11-28T09:36:14.725Z,100.00
2022-11-28T09:38:41.582Z,100.00
2022-11-28T09:41:29.244Z,100.00
2022-11-28T09:44:01.798Z,100.00
2022-11-28T09:46:33.361Z,100.00
2022-11-28T09:49:03.474Z,100.00
2022-11-28T09:51:52.693Z,100.00
2022-11-28T09:54:44.496Z,100.00
2022-11-28T09:57:30.883Z,100.00
2022-11-28T09:59:57.001Z,100.00
2022-11-28T10:02:41.121Z,100.00
2022-11-28T10:05:24.401Z,100.00
2022-11-28T10:08:19.729Z,100.00
2022-11-28T10:11:04.908Z,100.00
2022-11-28T10:14:06.553Z,100.00
2022-11-28T10:16:55.036Z,98.73
2022-11-28T10:19:53.882Z,97.54
2022-11-28T10:22:28.774Z,97.17
2022-11-28T10:24:57.610Z,97.27
2022-11-28T10:27:34.403Z,97.14
2022-11-28T10:30:15.529Z,95.96
2022-11-28T10:32:47.090Z,95.76
2022-11-28T10:35:42.333Z,95.98
2022-11-28T10:38:12.174Z,96.55
2022-11-28T10:40:56.716Z,97.33
2022-11-28T10:43:38.305Z,97.94
2022-11-28T10:46:12.627Z,96.79
2022-11-28T10:48:55.132Z,96.17
2022-11-28T10:51:38.368Z,95.92
2022-11-28T10:54:16.871Z,95.67
2022-11-28T10:56:57.402Z,95.91
2022-11-28T10:59:38.684Z,95.99
2022-11-28T11:02:19.931Z,95.57
2022-11-28T11:04:46.218Z,95.51
2022-11-28T11:07:21.019Z,95.72
2022-11-28T11:09:50.089Z,95.03
2022-11-28T11:12:21.725Z,94.73
2022-11-28T11:14:47.928Z,97.00
2022-11-28T11:17:36.467Z,98.35
2022-11-28T11:20:18.613Z,98.76
2022-11-28T11:22:55.014Z,98.37
2022-11-28T11:25:21.146Z,97.37
2022-11-28T11:27:56.765Z,97.00
2022-11-28T11:30:43.882Z,97.89
2022-11-28T11:33:17.310Z,98.38
2022-11-28T11:35:47.350Z,99.42
2022-11-28T11:38:22.568Z,100.00
2022-11-28T11:40:52.086Z,100.00
2022-11-28T11:43:31.544Z,100.00
2022-11-28T11:46:14.790Z,100.00
2022-11-28T11:48:50.394Z,100.00
2022-11-28T11:51:25.948Z,100.00
2022-11-28T11:54:14.813Z,99.67
2022-11-28T11:56:44.150Z,100.00
2022-11-28T11:59:16.183Z,100.00
2022-11-28T12:01:45.490Z,100.00
2022-11-28T12:04:45.048Z,100.00
2022-11-28T12:07:24.992Z,100.00
2022-11-28T12:09:54.787Z,100.00
2022-11-28T12:12:29.187Z,100.00
2022-11-28T12:14:55.624Z,100.00
2022-11-28T12:17:50.075Z,100.00
2022-11-28T12:20:26.571Z,100.00
2022-11-28T12:23:29.256Z,99.17
2022-11-28T12:26:23.415Z,100.00
2022-11-28T12:29:21.869Z,100.00
2022-11-28T12:32:22.638Z,100.00
2022-11-28T12:35:16.167Z,100.00
2022-11-28T12:38:10.771Z,100.00
2022-11-28T12:40:59.268Z,100.00
2022-11-28T12:44:02.600Z,100.00
2022-11-28T12:46:34.869Z,100.00
2022-11-28T12:49:17.596Z,100.00
2022-11-28T12:52:08.750Z,100.00
2022-11-28T12:55:20.453Z,100.00
2022-11-28T12:58:06.728Z,100.00
2022-11-28T13:00:34.310Z,100.00
2022-11-28T13:03:21.448Z,100.00
2022-11-28T13:06:24.940Z,100.00
2022-11-28T13:09:14.483Z,100.00
2022-11-28T13:12:17.625Z,100.00
2022-11-28T13:14:54.460Z,100.00
2022-11-28T13:17:45.526Z,100.00
2022-11-28T13:20:29.226Z,99.30
2022-11-28T13:23:29.213Z,99.46
2022-11-28T13:26:17.116Z,99.35
2022-11-28T13:28:57.775Z,99.00
2022-11-28T13:31:40.772Z,98.50
2022-11-28T13:34:15.427Z,97.80
2022-11-28T13:39:46.899Z,97.20
2022-11-28T13:43:02.359Z,97.94
2022-11-28T13:45:34.979Z,98.80
2022-11-28T13:49:06.468Z,99.61
2022-11-28T13:51:35.211Z,100.00
2022-11-28T13:54:19.999Z,100.00
2022-11-28T13:57:06.388Z,99.38
2022-11-28T13:59:33.533Z,99.61
2022-11-28T14:02:02.703Z,99.38
2022-11-28T14:04:31.424Z,100.00
2022-11-28T14:07:03.868Z,100.00
2022-11-28T14:09:47.757Z,100.00
2022-11-28T14:12:24.909Z,100.00
2022-11-28T14:15:10.319Z,100.00
2022-11-28T14:18:54.333Z,100.00
2022-11-28T14:21:40.713Z,100.00
2022-11-28T14:24:53.565Z,100.00
2022-11-28T14:27:30.893Z,100.00
2022-11-28T14:29:58.873Z,100.00
2022-11-28T14:32:31.567Z,100.00
2022-11-28T14:34:59.348Z,100.00
2022-11-28T14:37:29.464Z,100.00
2022-11-28T14:39:57.583Z,100.00
2022-11-28T14:45:34.766Z,100.00
2022-11-28T14:48:18.180Z,100.00
2022-11-28T14:50:59.072Z,100.00
2022-11-28T14:53:34.798Z,100.00
2022-11-28T14:56:11.504Z,100.00
2022-11-28T14:58:38.385Z,100.00
2022-11-28T15:01:10.318Z,100.00
2022-11-28T15:03:59.153Z,100.00
2022-11-28T15:06:35.325Z,100.00
2022-11-28T15:09:19.023Z,100.00
2022-11-28T15:12:00.547Z,100.00
2022-11-28T15:14:29.660Z,100.00
2022-11-28T15:17:00.523Z,100.00
2022-11-28T15:19:33.689Z,100.00
2022-11-28T15:22:00.067Z,100.00
2022-11-28T15:24:33.169Z,100.00
2022-11-28T15:27:22.566Z,100.00
2022-11-28T15:30:15.435Z,100.00
2022-11-28T15:32:42.285Z,100.00
2022-11-28T15:35:15.393Z,100.00
2022-11-28T15:37:51.543Z,100.00
2022-11-28T15:40:31.370Z,100.00
2022-11-28T15:42:59.180Z,100.00
2022-11-28T15:45:28.379Z,100.00
2022-11-28T15:47:55.660Z,100.00
2022-11-28T15:50:25.404Z,100.00
2022-11-28T15:52:58.453Z,100.00
2022-11-28T15:55:28.828Z,100.00
2022-11-28T15:58:19.329Z,100.00
2022-11-28T16:00:52.214Z,100.00
2022-11-28T16:03:26.283Z,100.00
2022-11-28T16:05:54.553Z,100.00
2022-11-28T16:08:36.106Z,100.00
2022-11-28T16:11:04.775Z,100.00
2022-11-28T16:13:32.495Z,100.00
2022-11-28T16:16:01.669Z,100.00
2022-11-28T16:18:29.261Z,100.00
2022-11-28T16:20:58.155Z,100.00
2022-11-28T16:23:35.855Z,100.00
2022-11-28T16:26:04.371Z,100.00
2022-11-28T16:28:36.469Z,100.00
2022-11-28T16:31:09.781Z,100.00
2022-11-28T16:33:41.065Z,100.00
2022-11-28T16:36:33.913Z,100.00
2022-11-28T16:39:10.440Z,100.00
2022-11-28T16:41:38.703Z,100.00
2022-11-28T16:44:11.134Z,100.00
2022-11-28T16:46:58.073Z,100.00
2022-11-28T16:49:34.875Z,100.00
2022-11-28T16:52:20.902Z,100.00
2022-11-28T16:54:54.857Z,100.00
2022-11-28T16:57:21.505Z,100.00
2022-11-28T16:59:49.285Z,100.00
2022-11-28T17:02:19.656Z,100.00
2022-11-28T17:04:47.938Z,100.00
2022-11-28T17:07:16.968Z,100.00
2022-11-28T17:09:44.702Z,100.00
2022-11-28T17:12:24.514Z,100.00
2022-11-28T17:14:50.788Z,100.00
2022-11-28T17:17:18.704Z,100.00
2022-11-28T17:19:45.658Z,100.00
2022-11-28T17:22:16.237Z,100.00
2022-11-28T17:24:42.604Z,100.00
2022-11-28T17:27:12.066Z,100.00
2022-11-28T17:29:38.559Z,100.00
2022-11-28T17:32:05.544Z,100.00
2022-11-28T17:34:33.815Z,100.00
2022-11-28T17:37:01.267Z,100.00
2022-11-28T17:39:28.626Z,100.00
2022-11-28T17:41:56.890Z,100.00
2022-11-28T17:44:24.652Z,100.00
2022-11-28T17:46:52.334Z,100.00
2022-11-28T17:49:19.380Z,100.00
2022-11-28T17:51:46.127Z,100.00
2022-11-28T17:54:17.865Z,100.00
2022-11-28T17:56:45.599Z,100.00
2022-11-28T17:59:13.261Z,100.00
2022-11-28T18:01:39.611Z,100.00
2022-11-28T18:04:05.824Z,100.00
2022-11-28T18:06:32.065Z,100.00
2022-11-28T18:08:59.957Z,100.00
2022-11-28T18:11:27.303Z,100.00
2022-11-28T18:13:54.163Z,100.00
2022-11-28T18:16:23.209Z,100.00
2022-11-28T18:18:49.628Z,100.00
2022-11-28T18:21:16.678Z,100.00
2022-11-28T18:23:46.074Z,100.00
2022-11-28T18:26:14.677Z,100.00
2022-11-28T18:28:41.561Z,100.00
2022-11-28T18:31:11.795Z,100.00
2022-11-28T18:33:38.942Z,100.00
2022-11-28T18:36:13.391Z,100.00
2022-11-28T18:38:40.559Z,100.00
2022-11-28T18:41:09.475Z,100.00
2022-11-28T18:43:36.791Z,100.00
2022-11-28T18:46:26.077Z,100.00
2022-11-28T18:48:53.286Z,100.00
2022-11-28T18:51:26.800Z,100.00
2022-11-28T18:53:54.691Z,100.00
2022-11-28T18:56:23.405Z,100.00
2022-11-28T18:58:54.625Z,100.00
2022-11-28T19:01:22.601Z,100.00
2022-11-28T19:03:50.483Z,100.00
2022-11-28T19:06:17.499Z,100.00
2022-11-28T19:08:43.616Z,100.00
2022-11-28T19:11:14.400Z,100.00
2022-11-28T19:13:42.483Z,100.00
2022-11-28T19:16:13.709Z,100.00
2022-11-28T19:18:40.729Z,100.00
2022-11-28T19:21:10.339Z,100.00
2022-11-28T19:23:36.663Z,100.00
2022-11-28T19:26:11.144Z,100.00
2022-11-28T19:28:39.032Z,100.00
2022-11-28T19:31:15.047Z,100.00
2022-11-28T19:33:45.881Z,100.00
2022-11-28T19:36:15.830Z,100.00
2022-11-28T19:38:42.626Z,100.00
2022-11-28T19:41:10.806Z,100.00
2022-11-28T19:43:37.408Z,100.00
2022-11-28T19:46:04.519Z,100.00
2022-11-28T19:48:33.050Z,100.00
2022-11-28T19:50:59.446Z,100.00
2022-11-28T19:53:26.224Z,100.00
2022-11-28T19:55:54.065Z,100.00
2022-11-28T19:58:20.174Z,100.00
2022-11-28T20:00:46.945Z,100.00
2022-11-28T20:03:13.060Z,100.00
2022-11-28T20:05:41.248Z,100.00
2022-11-28T20:08:08.454Z,100.00
2022-11-28T20:10:36.473Z,100.00
2022-11-28T20:13:02.608Z,100.00
2022-11-28T20:15:28.909Z,100.00
2022-11-28T20:17:55.055Z,100.00
2022-11-28T20:20:22.197Z,100.00
2022-11-28T20:22:48.334Z,100.00
2022-11-28T20:25:20.520Z,100.00
2022-11-28T20:27:48.818Z,100.00
2022-11-28T20:30:15.739Z,100.00
2022-11-28T20:32:42.278Z,100.00
2022-11-28T20:35:09.591Z,100.00
2022-11-28T20:37:36.656Z,100.00
2022-11-28T20:40:02.812Z,100.00
2022-11-28T20:42:28.921Z,100.00
2022-11-28T20:44:55.065Z,100.00
2022-11-28T20:47:21.582Z,100.00
2022-11-28T20:49:47.952Z,100.00
2022-11-28T20:52:14.096Z,100.00
2022-11-28T20:54:40.273Z,100.00
2022-11-28T20:57:20.774Z,100.00
2022-11-28T20:59:47.745Z,100.00
2022-11-28T21:02:14.001Z,100.00
2022-11-28T21:04:40.186Z,100.00
2022-11-28T21:07:06.294Z,100.00
2022-11-28T21:09:32.434Z,100.00
2022-11-28T21:11:59.600Z,100.00
2022-11-28T21:14:27.614Z,100.00
2022-11-28T21:16:54.046Z,100.00
2022-11-28T21:19:20.207Z,100.00
2022-11-28T21:21:46.319Z,100.00
2022-11-28T21:24:14.342Z,100.00
2022-11-28T21:26:45.276Z,100.00
2022-11-28T21:29:14.133Z,100.00
2022-11-28T21:31:42.614Z,100.00
2022-11-28T21:34:14.516Z,100.00
2022-11-28T21:36:41.037Z,100.00
2022-11-28T21:39:07.156Z,100.00
2022-11-28T21:41:33.407Z,100.00
2022-11-28T21:44:00.165Z,100.00
2022-11-28T21:46:27.324Z,100.00
2022-11-28T21:48:53.808Z,100.00
2022-11-28T21:51:23.180Z,100.00
2022-11-28T21:53:49.742Z,100.00
2022-11-28T21:56:15.984Z,100.00
2022-11-28T21:58:42.387Z,100.00
2022-11-28T22:01:11.506Z,100.00
2022-11-28T22:03:38.374Z,100.00
2022-11-28T22:06:13.812Z,100.00
2022-11-28T22:08:39.928Z,100.00
2022-11-28T22:11:11.197Z,100.00
2022-11-28T22:13:39.140Z,100.00
2022-11-28T22:16:20.128Z,100.00
2022-11-28T22:18:48.371Z,100.00
2022-11-28T22:24:04.176Z,100.00
2022-11-28T22:26:31.227Z,100.00
2022-11-28T22:28:58.861Z,100.00
2022-11-28T22:31:25.318Z,100.00
2022-11-28T22:33:51.521Z,100.00
2022-11-28T22:36:20.575Z,100.00
2022-11-28T22:38:48.939Z,100.00
2022-11-28T22:41:27.974Z,100.00
2022-11-28T22:43:56.644Z,100.00
2022-11-28T22:46:23.273Z,100.00
2022-11-28T22:48:50.654Z,100.00
2022-11-28T22:51:23.505Z,100.00
2022-11-28T22:53:57.831Z,100.00
2022-11-28T22:56:26.732Z,100.00
2022-11-28T22:58:53.460Z,100.00
2022-11-28T23:01:24.095Z,100.00
2022-11-28T23:03:51.383Z,100.00
2022-11-28T23:06:20.421Z,100.00
2022-11-28T23:08:53.217Z,100.00
2022-11-28T23:11:22.135Z,100.00
2022-11-28T23:13:50.073Z,100.00
2022-11-28T23:16:26.855Z,100.00
2022-11-28T23:18:55.181Z,100.00
2022-11-28T23:21:23.112Z,100.00
2022-11-28T23:23:49.316Z,100.00
2022-11-28T23:26:22.007Z,100.00
2022-11-28T23:28:49.091Z,100.00
2022-11-28T23:31:25.031Z,100.00
2022-11-28T23:33:52.517Z,100.00
2022-11-28T23:36:27.093Z,100.00
2022-11-28T23:38:56.582Z,100.00
2022-11-28T23:41:23.092Z,100.00
2022-11-28T23:43:49.753Z,100.00
2022-11-28T23:46:17.766Z,100.00
2022-11-28T23:48:45.095Z,100.00
2022-11-28T23:51:15.117Z,100.00
2022-11-28T23:53:42.058Z,100.00
2022-11-28T23:56:14.133Z,100.00
2022-11-28T23:58:41.601Z,100.00
